Terminal Aerodrome Forecast
Issued by NWS Pocatello, ID

Home | Current Version | Previous Version | Text Only | Print | Product List | Glossary On
Versions: 1 2 3 4 5 6 7 8 9 10 11 12 13 14
000
FTUS45 KPIH 230520
TAFBYI
TAF
KBYI 230520Z 2306/2406 17007KT P6SM OVC120
     FM230900 VRB06KT P6SM -SHRA BKN040 OVC050
     FM231300 VRB05KT P6SM VCSH BKN050
     FM231800 27011KT P6SM OVC080
     FM240300 25010KT P6SM BKN100=

USA.gov is the U.S. government's official web portal to all federal, state and local government web resources and services.